Kintyre, North Dakota
Current Conditions -  °F | °C
As of 10:15 AM on Wednesday 26 Nov 2014 (Local Time) from K7L2 Reporting Station
Light Snow Light Snow  
Wind Chill: -2°   Ceiling: 1700
Heat Index:   Visibility: 3mi
Dew Point:   Wind: 5mph
Humidity: 79%   Direction: 10°N
Pressure: 30.34"   Gusts: NA
Location:  46.55°N, 99.95°W
Report Text: K7L2 261615Z AUTO 01004KT 3SM -SN FEW010 BKN017 OVC023 M14/M17 A3034 RMK AO2 P0001
Loading
Personal Weather Stations






























Interactive Weather Map New forecast layout! Learn more

10-Day Weather Forecast

Advertisements
Track Severe Weather on mobile